Time;durP1;ratioP1;P1;durP2;ratioP2;P2;SDS_P1;SDS_P2;PMS_P1;PMS_P2;Temp;Humidity;BMP_temperature;BMP_pressure;BME280_temperature;BME280_humidity;BME280_pressure;Samples;Min_cycle;Max_cycle;Signal;HPM_P1;HPM_P2
2023/07/03 00:00:17;;;;;;;0.32;0.32;;;29.20;79.20;;;29.54;62.94;94638.81;5111364;28;20251;-41
2023/07/03 00:02:52;;;;;;;0.30;0.30;;;29.20;78.50;;;29.52;63.64;94635.66;5079185;28;20288;-40
2023/07/03 00:05:21;;;;;;;0.20;0.20;;;29.20;78.50;;;29.51;63.24;94631.38;5110676;28;20265;-40
2023/07/03 00:07:48;;;;;;;0.30;0.30;;;29.20;78.40;;;29.51;63.14;94629.44;5095291;28;20680;-42
2023/07/03 00:10:16;;;;;;;0.30;0.30;;;29.20;78.50;;;29.49;63.40;94636.28;5111230;28;20282;-41
2023/07/03 00:12:44;;;;;;;0.20;0.20;;;29.10;78.50;;;29.49;63.54;94641.69;5112011;28;20194;-40
2023/07/03 00:15:11;;;;;;;0.30;0.30;;;29.10;78.50;;;29.48;63.03;94637.38;5095327;28;20200;-41
2023/07/03 00:17:40;;;;;;;0.30;0.30;;;29.10;78.50;;;29.48;63.59;94640.09;5095255;28;20247;-40
2023/07/03 00:20:13;;;;;;;0.30;0.30;;;29.10;78.60;;;29.46;63.23;94636.94;5095603;28;20228;-40
2023/07/03 00:22:42;;;;;;;0.30;0.30;;;29.10;79.50;;;29.45;63.64;94638.81;5095120;28;20180;-42
2023/07/03 00:25:10;;;;;;;0.30;0.30;;;29.10;78.60;;;29.44;63.84;94644.56;5094849;28;20277;-42
2023/07/03 00:27:37;;;;;;;0.30;0.30;;;29.10;78.70;;;29.43;63.22;94640.25;5094887;28;20643;-40
2023/07/03 00:30:05;;;;;;;0.20;0.20;;;29.10;78.70;;;29.43;63.75;94637.56;5095023;28;20217;-40
2023/07/03 00:32:33;;;;;;;0.32;0.32;;;29.10;78.80;;;29.42;63.59;94636.78;5094970;28;20196;-40
2023/07/03 00:35:00;;;;;;;0.30;0.30;;;29.10;78.80;;;29.41;63.48;94629.78;5094977;28;20205;-39
2023/07/03 00:37:28;;;;;;;0.30;0.30;;;29.10;78.70;;;29.38;63.31;94628.53;5110894;28;20197;-42
2023/07/03 00:39:55;;;;;;;0.40;0.40;;;29.10;78.80;;;29.39;63.28;94630.09;5094673;28;20214;-40
2023/07/03 00:42:24;;;;;;;0.22;0.22;;;29.10;78.80;;;29.37;64.06;94626.94;5094209;28;20609;-40
2023/07/03 00:44:51;;;;;;;0.30;0.30;;;29.10;78.90;;;29.37;63.33;94642.34;5094035;28;20198;-39
2023/07/03 00:47:19;;;;;;;0.30;0.30;;;29.10;78.90;;;29.36;63.48;94643.47;5094804;28;20696;-37
2023/07/03 00:49:47;;;;;;;0.30;0.30;;;29.10;78.90;;;29.35;63.95;94634.53;5094724;28;20194;-37
2023/07/03 00:52:15;;;;;;;0.30;0.30;;;29.00;78.90;;;29.35;64.15;94639.16;5093801;28;20215;-38
2023/07/03 00:54:42;;;;;;;0.30;0.30;;;29.00;79.80;;;29.34;63.86;94637.56;5094652;28;20214;-37
2023/07/03 00:57:13;;;;;;;0.30;0.30;;;29.00;79.00;;;29.30;63.79;94626.59;5110772;28;20255;-37
2023/07/03 00:59:41;;;;;;;0.30;0.30;;;29.00;79.30;;;29.30;64.20;94637.41;5114171;28;20291;-37
2023/07/03 01:02:29;;;;;;;0.30;0.30;;;29.00;79.00;;;29.29;64.03;94635.00;5098674;28;20221;-38
2023/07/03 01:05:05;;;;;;;0.30;0.30;;;29.00;79.20;;;29.28;64.01;94639.59;5099247;28;20235;-36
2023/07/03 01:07:35;;;;;;;0.20;0.20;;;29.00;79.10;;;29.28;63.87;94646.91;5099181;28;20184;-37
2023/07/03 01:10:13;;;;;;;0.20;0.20;;;29.00;79.20;;;29.25;64.29;94645.66;5114411;28;20190;-39
2023/07/03 01:12:44;;;;;;;0.20;0.20;;;29.00;79.10;;;29.25;64.37;94640.25;5097922;28;20220;-37
2023/07/03 01:15:17;;;;;;;0.30;0.30;;;28.90;79.10;;;29.22;64.09;94633.56;5131448;27;20181;-37
2023/07/03 01:17:50;;;;;;;0.30;0.30;;;28.90;79.10;;;29.23;64.44;94634.34;5097266;28;20224;-38
2023/07/03 01:20:20;;;;;;;0.25;0.25;;;28.90;79.10;;;29.22;64.08;94632.75;5098226;28;20230;-41
2023/07/03 01:23:23;;;;;;;0.30;0.30;;;28.90;80.00;;;29.19;64.53;94628.81;5097422;28;20252;-39
2023/07/03 01:25:52;;;;;;;0.30;0.30;;;28.90;79.40;;;29.19;64.04;94639.59;5114000;28;20308;-37
2023/07/03 01:28:24;;;;;;;0.30;0.30;;;28.90;79.20;;;29.18;64.71;94642.63;5113823;28;20255;-38
2023/07/03 01:30:54;;;;;;;0.30;0.30;;;28.90;79.40;;;29.17;64.11;94635.63;5097842;28;20173;-41
2023/07/03 01:33:30;;;;;;;0.20;0.20;;;28.90;79.30;;;29.17;64.57;94641.03;5114165;28;20255;-39
2023/07/03 01:35:59;;;;;;;0.30;0.30;;;28.90;79.40;;;29.16;64.45;94644.84;5130370;27;20180;-40
2023/07/03 01:38:29;;;;;;;0.30;0.30;;;28.90;79.30;;;29.17;64.25;94638.34;5098293;28;20197;-37
2023/07/03 01:40:59;;;;;;;0.30;0.30;;;28.90;79.30;;;29.15;64.10;94637.84;5097815;28;20210;-37
2023/07/03 01:43:28;;;;;;;0.30;0.30;;;28.90;79.40;;;29.15;64.67;94637.84;5097851;28;20504;-38
2023/07/03 01:45:55;;;;;;;0.25;0.25;;;28.90;79.50;;;29.15;64.80;94637.84;5097856;28;20194;-37
2023/07/03 01:48:22;;;;;;;0.20;0.20;;;28.80;79.30;;;29.13;64.46;94640.88;5097829;28;20716;-37
2023/07/03 01:50:49;;;;;;;0.20;0.20;;;28.80;79.40;;;29.13;64.64;94638.16;5097668;28;20515;-37
2023/07/03 01:53:29;;;;;;;0.30;0.30;;;28.80;79.40;;;29.12;64.67;94646.59;5096703;28;20633;-36
2023/07/03 01:56:18;;;;;;;0.30;0.30;;;28.80;79.70;;;29.08;64.43;94647.22;5098095;28;20571;-37
2023/07/03 01:58:50;;;;;;;0.30;0.30;;;28.80;79.60;;;29.10;65.04;94632.59;5096589;28;20239;-37
2023/07/03 02:01:29;;;;;;;0.30;0.30;;;28.80;79.60;;;29.09;64.70;94639.94;5097746;28;20210;-37
2023/07/03 02:04:09;;;;;;;0.30;0.30;;;28.80;79.60;;;29.08;64.75;94641.03;5079854;28;20216;-37
2023/07/03 02:06:43;;;;;;;0.30;0.30;;;28.80;79.70;;;29.07;64.56;94644.84;5096879;28;20511;-38
2023/07/03 02:09:11;;;;;;;0.20;0.20;;;28.80;79.70;;;29.07;65.23;94644.84;5096376;28;20235;-37
2023/07/03 02:11:47;;;;;;;0.30;0.30;;;28.80;79.60;;;29.06;65.29;94644.06;5130528;27;20204;-37
2023/07/03 02:14:15;;;;;;;0.30;0.30;;;28.80;79.70;;;29.05;64.47;94642.47;5096356;28;20197;-37
2023/07/03 02:16:44;;;;;;;0.30;0.30;;;28.80;79.60;;;29.05;65.27;94644.34;5096268;28;20205;-37
2023/07/03 02:19:13;;;;;;;0.28;0.28;;;28.80;79.70;;;29.05;64.80;94645.16;5112925;28;20239;-37
2023/07/03 02:21:44;;;;;;;0.30;0.30;;;28.80;79.70;;;29.03;64.58;94639.28;5096246;28;20198;-39
2023/07/03 02:24:12;;;;;;;0.20;0.20;;;28.80;79.80;;;29.03;64.67;94639.28;5113176;28;20200;-37
2023/07/03 02:26:42;;;;;;;0.30;0.30;;;28.80;79.80;;;29.02;65.38;94637.69;5095920;28;20245;-40
2023/07/03 02:29:09;;;;;;;0.20;0.20;;;28.80;79.80;;;29.02;65.09;94637.69;5097122;28;20228;-37
2023/07/03 02:31:37;;;;;;;0.20;0.20;;;28.70;79.70;;;29.01;65.22;94646.88;5113202;28;20190;-37
2023/07/03 02:34:05;;;;;;;0.20;0.20;;;28.70;79.80;;;29.01;65.01;94644.19;5096810;28;20208;-37
2023/07/03 02:36:40;;;;;;;0.30;0.30;;;28.70;79.70;;;29.01;64.84;94638.00;5130061;27;20217;-37
2023/07/03 02:39:09;;;;;;;0.40;0.40;;;28.70;79.90;;;29.01;65.34;94635.31;5096743;28;20193;-40
2023/07/03 02:41:37;;;;;;;0.30;0.30;;;28.70;79.80;;;28.99;65.40;94646.44;5096649;28;20237;-37
2023/07/03 02:44:04;;;;;;;0.30;0.30;;;28.70;79.80;;;28.98;64.92;94638.63;5112728;28;20198;-36
2023/07/03 02:46:33;;;;;;;0.30;0.30;;;28.70;79.80;;;28.96;65.57;94638.94;5112638;28;20276;-36
2023/07/03 02:49:00;;;;;;;0.30;0.30;;;28.70;79.90;;;28.98;65.50;94642.13;5096417;28;20186;-38
2023/07/03 02:51:27;;;;;;;0.32;0.32;;;28.70;79.90;;;28.97;64.97;94645.16;5095588;28;20197;-37
2023/07/03 02:53:58;;;;;;;0.30;0.30;;;28.70;79.90;;;28.96;64.91;94646.25;5129937;27;20267;-37
2023/07/03 02:56:25;;;;;;;0.30;0.30;;;28.70;79.90;;;28.96;65.62;94654.38;5112575;28;20251;-38
2023/07/03 02:58:52;;;;;;;0.30;0.30;;;28.70;80.00;;;28.95;65.68;94644.66;5096230;28;20186;-36
2023/07/03 03:01:25;;;;;;;0.30;0.30;;;28.70;80.00;;;28.92;65.05;94641.47;5096881;28;20194;-38
2023/07/03 03:03:54;;;;;;;0.22;0.22;;;28.70;80.00;;;28.91;64.90;94642.59;5129519;27;20300;-37
2023/07/03 03:06:21;;;;;;;0.20;0.20;;;28.60;80.00;;;28.92;65.51;94646.88;5129400;27;20206;-40
2023/07/03 03:08:48;;;;;;;0.20;0.20;;;28.70;80.00;;;28.92;65.15;94654.97;5112185;28;20213;-38
2023/07/03 03:11:17;;;;;;;0.30;0.30;;;28.60;80.00;;;28.91;65.31;94645.28;5112199;28;20207;-37
2023/07/03 03:13:47;;;;;;;0.25;0.25;;;28.60;80.00;;;28.90;65.27;94645.63;5095160;28;20220;-38
2023/07/03 03:16:16;;;;;;;0.30;0.30;;;28.60;80.00;;;28.90;65.46;94651.00;5112109;28;20660;-38
2023/07/03 03:18:43;;;;;;;0.30;0.30;;;28.60;80.00;;;28.88;64.98;94645.94;5096488;28;20292;-40
2023/07/03 03:21:10;;;;;;;0.20;0.20;;;28.60;80.00;;;28.90;65.22;94651.00;5111198;28;20214;-37
2023/07/03 03:23:37;;;;;;;0.20;0.20;;;28.60;80.00;;;28.88;65.86;94653.22;5094978;28;20197;-39
2023/07/03 03:26:06;;;;;;;0.20;0.20;;;28.60;80.10;;;28.87;65.79;94652.44;5095739;28;20248;-39
2023/07/03 03:28:33;;;;;;;0.20;0.20;;;28.60;80.10;;;28.87;65.33;94657.84;5095958;28;20200;-39
2023/07/03 03:31:01;;;;;;;0.30;0.30;;;28.60;80.90;;;28.87;65.82;94657.84;5129000;27;20211;-38
2023/07/03 03:33:31;;;;;;;0.30;0.30;;;28.60;80.10;;;28.87;65.31;94665.16;5094848;28;20231;-38
2023/07/03 03:35:58;;;;;;;0.20;0.20;;;28.60;80.10;;;28.86;65.31;94663.56;5095035;28;20259;-40
2023/07/03 03:38:25;;;;;;;0.28;0.28;;;28.60;80.10;;;28.86;65.68;94666.25;5094836;28;20198;-37
2023/07/03 03:40:56;;;;;;;0.30;0.30;;;28.60;80.20;;;28.85;65.69;94659.28;5095435;28;20296;-37
2023/07/03 03:43:27;;;;;;;0.20;0.20;;;28.60;80.30;;;28.85;65.91;94667.38;5110993;28;20696;-37
2023/07/03 03:46:00;;;;;;;0.30;0.30;;;28.60;80.20;;;28.84;65.54;94666.56;5095812;28;20278;-36
2023/07/03 03:48:30;;;;;;;0.30;0.30;;;28.60;80.20;;;28.84;65.30;94660.38;5094625;28;20198;-37
2023/07/03 03:51:00;;;;;;;0.30;0.30;;;28.60;80.20;;;28.84;65.60;94663.06;5128565;27;20228;-37
2023/07/03 03:53:29;;;;;;;0.20;0.20;;;28.60;80.30;;;28.83;65.97;94662.28;5111488;28;20554;-37
2023/07/03 03:55:57;;;;;;;0.25;0.25;;;28.50;80.20;;;28.83;65.94;94661.47;5094428;28;20198;-37
2023/07/03 03:58:25;;;;;;;0.40;0.40;;;28.60;80.30;;;28.82;66.14;94662.59;5096462;28;20362;-37
2023/07/03 04:00:52;;;;;;;0.20;0.20;;;28.60;80.30;;;28.82;65.52;94662.59;5094176;28;20210;-37
2023/07/03 04:03:20;;;;;;;0.20;0.20;;;28.60;80.30;;;28.83;65.53;94666.88;5095331;28;20186;-38
2023/07/03 04:05:47;;;;;;;0.20;0.20;;;28.60;80.40;;;28.83;65.59;94665.00;5095486;28;20251;-37
2023/07/03 04:08:15;;;;;;;0.28;0.28;;;28.60;80.30;;;28.82;66.11;94662.59;5095186;28;20198;-36
2023/07/03 04:10:43;;;;;;;0.30;0.30;;;28.50;80.30;;;28.82;66.24;94665.28;5095316;28;20509;-37
2023/07/03 04:13:13;;;;;;;0.20;0.20;;;28.60;80.40;;;28.82;65.90;94662.59;5095710;28;20205;-37
2023/07/03 04:15:52;;;;;;;0.30;0.30;;;28.60;80.50;;;28.81;66.26;94667.19;5095135;28;20629;-37
2023/07/03 04:18:22;;;;;;;0.30;0.30;;;28.60;80.50;;;28.81;65.55;94661.81;5095438;28;20273;-37
2023/07/03 04:20:50;;;;;;;0.20;0.20;;;28.60;80.40;;;28.79;65.54;94658.59;5094840;28;20209;-37
2023/07/03 04:23:18;;;;;;;0.30;0.30;;;28.60;80.40;;;28.81;66.14;94667.19;5095113;28;20200;-37
2023/07/03 04:25:46;;;;;;;0.30;0.30;;;28.50;80.40;;;28.80;65.54;94662.91;5094880;28;20623;-36
2023/07/03 04:28:15;;;;;;;0.20;0.20;;;28.60;80.50;;;28.81;66.28;94663.69;5095151;28;20193;-37
2023/07/03 04:30:43;;;;;;;0.20;0.20;;;28.60;80.50;;;28.81;66.15;94669.91;5094926;28;20281;-37
2023/07/03 04:33:10;;;;;;;0.20;0.20;;;28.50;80.50;;;28.80;66.28;94670.22;5098142;28;20273;-36
2023/07/03 04:35:37;;;;;;;0.28;0.28;;;28.60;80.50;;;28.80;65.64;94668.31;5099123;28;20262;-37
2023/07/03 04:38:05;;;;;;;0.30;0.30;;;28.50;80.50;;;28.81;66.02;94669.09;5099130;28;20194;-37
2023/07/03 04:40:33;;;;;;;0.30;0.30;;;28.50;80.50;;;28.80;65.69;94662.91;5099078;28;20228;-36
2023/07/03 04:43:00;;;;;;;0.20;0.20;;;28.50;80.50;;;28.82;66.17;94673.38;5099037;28;20251;-37
2023/07/03 04:45:30;;;;;;;0.20;0.20;;;28.50;80.60;;;28.81;65.73;94672.59;5098991;28;20232;-37
2023/07/03 04:47:57;;;;;;;0.30;0.30;;;28.60;80.60;;;28.81;66.56;94679.88;5099252;28;20193;-36
2023/07/03 04:50:25;;;;;;;0.30;0.30;;;28.50;80.60;;;28.82;65.89;94676.06;5098708;28;20198;-36
2023/07/03 04:52:53;;;;;;;0.30;0.30;;;28.60;80.60;;;28.82;66.37;94687.69;5099724;28;20569;-41
2023/07/03 04:55:23;;;;;;;0.20;0.20;;;28.60;80.60;;;28.83;65.95;94691.16;5099030;28;20186;-37
2023/07/03 04:57:50;;;;;;;0.28;0.28;;;28.50;80.60;;;28.83;65.96;94688.47;5099307;28;20204;-38
2023/07/03 05:00:19;;;;;;;0.20;0.20;;;28.60;80.60;;;28.83;66.51;94686.59;5114984;28;20286;-38
2023/07/03 05:02:49;;;;;;;0.28;0.28;;;28.50;80.60;;;28.83;65.97;94693.88;5098688;28;20193;-40
2023/07/03 05:05:18;;;;;;;0.25;0.25;;;28.60;80.70;;;28.83;66.37;94693.88;5098895;28;20590;-37
2023/07/03 05:07:46;;;;;;;0.30;0.30;;;28.60;80.70;;;28.83;65.95;94689.28;5098570;28;20194;-37
2023/07/03 05:10:15;;;;;;;0.30;0.30;;;28.60;80.70;;;28.84;66.24;94681.97;5098379;28;20231;-40
2023/07/03 05:12:43;;;;;;;0.20;0.20;;;28.50;80.60;;;28.84;65.81;94681.97;5098473;28;20190;-39
2023/07/03 05:15:14;;;;;;;0.30;0.30;;;28.60;80.70;;;28.83;66.25;94683.88;5098484;28;20195;-36
2023/07/03 05:17:41;;;;;;;0.20;0.20;;;28.60;80.70;;;28.84;66.65;94687.38;5098696;28;20182;-38
2023/07/03 05:20:16;;;;;;;0.30;0.30;;;28.60;80.70;;;28.83;65.89;94689.28;5098086;28;20201;-38
2023/07/03 05:22:45;;;;;;;0.30;0.30;;;28.60;81.60;;;28.85;66.66;94681.66;5098920;28;20268;-38
2023/07/03 05:25:14;;;;;;;0.25;0.25;;;28.50;80.70;;;28.85;66.52;94681.66;5098010;28;20627;-38
2023/07/03 05:27:41;;;;;;;0.30;0.30;;;28.60;80.70;;;28.85;66.65;94692.44;5098700;28;20186;-38
2023/07/03 05:30:10;;;;;;;0.30;0.30;;;28.60;80.70;;;28.86;65.99;94683.25;5098183;28;20197;-38
2023/07/03 05:32:38;;;;;;;0.28;0.28;;;28.60;80.70;;;28.87;65.92;94689.44;5097816;28;20229;-38
2023/07/03 05:35:06;;;;;;;0.30;0.30;;;28.60;80.70;;;28.87;66.61;94692.94;5098156;28;20194;-37
2023/07/03 05:37:35;;;;;;;0.30;0.30;;;28.60;80.70;;;28.87;66.04;94687.53;5098007;28;20197;-36
2023/07/03 05:40:06;;;;;;;0.30;0.30;;;28.60;80.70;;;28.88;65.87;94694.53;5098136;28;20220;-36
2023/07/03 05:42:35;;;;;;;0.30;0.30;;;28.60;80.70;;;28.88;65.85;94693.72;5098208;28;20178;-37
2023/07/03 05:45:03;;;;;;;0.20;0.20;;;28.60;80.80;;;28.89;66.33;94703.41;5097146;28;20197;-37
2023/07/03 05:47:31;;;;;;;0.28;0.28;;;28.60;80.80;;;28.90;66.06;94702.31;5098939;28;20572;-37
2023/07/03 05:49:58;;;;;;;0.30;0.30;;;28.60;80.70;;;28.90;66.53;94702.31;5097854;28;20225;-36
2023/07/03 05:52:25;;;;;;;0.20;0.20;;;28.60;80.70;;;28.90;66.59;94700.38;5097688;28;20194;-37
2023/07/03 05:54:53;;;;;;;0.20;0.20;;;28.60;80.70;;;28.91;66.45;94693.09;5097901;28;20206;-36
2023/07/03 05:57:20;;;;;;;0.20;0.20;;;28.60;80.70;;;28.91;66.35;94701.19;5097623;28;20194;-38
2023/07/03 05:59:48;;;;;;;0.32;0.32;;;28.60;80.70;;;28.93;66.46;94701.69;5113512;28;20277;-37
2023/07/03 06:02:16;;;;;;;0.20;0.20;;;28.60;80.80;;;28.93;65.98;94699.00;5097742;28;20316;-38
2023/07/03 06:04:43;;;;;;;0.20;0.20;;;28.60;80.80;;;28.96;66.53;94711.06;5097506;28;20270;-36
2023/07/03 06:07:10;;;;;;;0.20;0.20;;;28.60;80.80;;;28.96;66.42;94706.44;5097730;28;20255;-36
2023/07/03 06:09:37;;;;;;;0.20;0.20;;;28.70;80.80;;;28.96;66.63;94708.38;5097759;28;20247;-37
2023/07/03 06:12:05;;;;;;;0.30;0.30;;;28.60;80.70;;;28.97;66.07;94713.44;5097300;28;20732;-36
2023/07/03 06:14:33;;;;;;;0.30;0.30;;;28.60;80.80;;;28.97;65.83;94710.75;5097310;28;20221;-40
2023/07/03 06:17:01;;;;;;;0.30;0.30;;;28.70;80.80;;;28.97;66.29;94710.75;5097549;28;20240;-37
2023/07/03 06:19:29;;;;;;;0.30;0.30;;;28.70;81.70;;;28.99;66.25;94722.03;5097176;28;20194;-37
2023/07/03 06:21:57;;;;;;;0.28;0.28;;;28.70;81.70;;;29.00;66.28;94720.13;5096929;28;20244;-37
2023/07/03 06:24:24;;;;;;;0.30;0.30;;;28.70;80.80;;;29.01;66.37;94717.09;5097241;28;20197;-37
2023/07/03 06:26:52;;;;;;;0.20;0.20;;;28.70;80.80;;;29.02;66.04;94728.72;5096950;28;20249;-37
2023/07/03 06:29:19;;;;;;;0.35;0.35;;;28.70;80.80;;;29.03;66.51;94727.59;5097308;28;20214;-36
2023/07/03 06:31:47;;;;;;;0.30;0.30;;;28.70;80.80;;;29.04;66.05;94729.16;5096835;28;20205;-36
2023/07/03 06:34:15;;;;;;;0.30;0.30;;;28.70;80.80;;;29.05;66.55;94722.66;5097506;28;20216;-36
2023/07/03 06:36:42;;;;;;;0.25;0.25;;;28.70;80.80;;;29.04;66.12;94724.56;5097304;28;20570;-38
2023/07/03 06:39:10;;;;;;;0.20;0.20;;;28.70;80.70;;;29.07;66.52;94725.84;5097132;28;20200;-40
2023/07/03 06:41:37;;;;;;;0.32;0.32;;;28.70;80.80;;;29.06;66.01;94725.06;5097050;28;20240;-38
2023/07/03 06:44:11;;;;;;;0.25;0.25;;;28.80;80.80;;;29.08;65.83;94724.75;5097534;28;20179;-37
2023/07/03 06:46:38;;;;;;;0.20;0.20;;;28.80;80.80;;;29.07;66.30;94715.06;5096106;28;20280;-40
2023/07/03 06:49:05;;;;;;;0.20;0.20;;;28.80;80.80;;;29.09;66.56;94715.53;5096845;28;20197;-41
2023/07/03 06:51:32;;;;;;;0.30;0.30;;;28.80;80.80;;;29.10;65.93;94719.03;5096430;28;20245;-39
2023/07/03 06:53:59;;;;;;;0.22;0.22;;;28.80;80.80;;;29.12;66.41;94722.22;5096607;28;20282;-42
2023/07/03 06:56:28;;;;;;;0.30;0.30;;;28.80;80.80;;;29.12;65.79;94723.00;5095985;28;20225;-41
2023/07/03 06:58:55;;;;;;;0.30;0.30;;;28.80;80.80;;;29.14;65.87;94717.28;5096414;28;20286;-41
2023/07/03 07:01:25;;;;;;;0.20;0.20;;;28.80;80.80;;;29.15;66.52;94718.88;5096124;28;20238;-41
2023/07/03 07:03:52;;;;;;;0.20;0.20;;;28.80;80.70;;;29.15;66.43;94721.56;5096358;28;20186;-42
2023/07/03 07:06:24;;;;;;;0.30;0.30;;;28.80;81.60;;;29.16;66.41;94723.97;5096798;28;20186;-41
2023/07/03 07:08:52;;;;;;;0.20;0.20;;;28.80;80.80;;;29.17;65.78;94722.84;5096407;28;20593;-42
2023/07/03 07:11:23;;;;;;;0.30;0.30;;;28.80;80.70;;;29.17;65.71;94719.34;5096065;28;20195;-40
2023/07/03 07:13:52;;;;;;;0.32;0.32;;;28.80;80.70;;;29.19;65.99;94727.94;5096470;28;20199;-42
2023/07/03 07:16:30;;;;;;;0.30;0.30;;;28.80;80.70;;;29.19;65.69;94717.94;5096125;28;20190;-41
2023/07/03 07:19:00;;;;;;;0.20;0.20;;;28.80;80.70;;;29.19;66.16;94715.22;5096376;28;20597;-40
2023/07/03 07:21:32;;;;;;;0.22;0.22;;;28.90;80.80;;;29.20;65.88;94718.75;5096014;28;20589;-44
2023/07/03 07:24:11;;;;;;;0.20;0.20;;;28.80;80.80;;;29.21;66.08;94725.72;5096027;28;20225;-43
2023/07/03 07:26:38;;;;;;;0.30;0.30;;;28.90;80.80;;;29.22;66.18;94722.72;5095860;28;20283;-43
2023/07/03 07:29:05;;;;;;;0.30;0.30;;;28.80;80.70;;;29.23;66.37;94724.31;5095897;28;20190;-40
2023/07/03 07:31:36;;;;;;;0.20;0.20;;;28.90;80.70;;;29.24;65.84;94723.16;5096126;28;20198;-44
2023/07/03 07:34:10;;;;;;;0.20;0.20;;;28.90;80.80;;;29.26;65.74;94725.56;5096176;28;20182;-40
2023/07/03 07:36:38;;;;;;;0.20;0.20;;;28.90;80.80;;;29.28;66.04;94722.56;5094939;28;20236;-40
2023/07/03 07:39:06;;;;;;;0.20;0.20;;;28.90;80.80;;;29.30;66.20;94726.56;5095691;28;20194;-39
2023/07/03 07:41:34;;;;;;;0.30;0.30;;;28.90;80.80;;;29.31;66.49;94727.34;5095497;28;20284;-39
2023/07/03 07:44:01;;;;;;;0.28;0.28;;;28.90;80.90;;;29.33;66.27;94725.94;5095641;28;20193;-39
2023/07/03 07:46:31;;;;;;;0.20;0.20;;;28.90;80.80;;;29.34;65.81;94735.59;5095581;28;20676;-40
2023/07/03 07:49:00;;;;;;;0.30;0.30;;;28.90;80.80;;;29.36;66.10;94724.50;5095539;28;20187;-40
2023/07/03 07:51:28;;;;;;;0.20;0.20;;;29.00;80.90;;;29.37;66.25;94720.69;5095630;28;20209;-39
2023/07/03 07:53:57;;;;;;;0.30;0.30;;;29.00;80.80;;;29.39;65.89;94726.56;5095491;28;20268;-40
2023/07/03 07:56:26;;;;;;;0.20;0.20;;;29.00;80.80;;;29.41;66.27;94728.94;5095701;28;20505;-40
2023/07/03 07:58:54;;;;;;;0.20;0.20;;;29.00;80.70;;;29.41;65.57;94718.94;5095366;28;20286;-39
2023/07/03 08:01:21;;;;;;;0.30;0.30;;;29.00;80.80;;;29.43;65.88;94724.84;5095448;28;20216;-39
2023/07/03 08:03:49;;;;;;;0.20;0.20;;;29.10;80.80;;;29.45;65.86;94721.81;5095226;28;20575;-39
2023/07/03 08:06:17;;;;;;;0.25;0.25;;;29.10;80.80;;;29.45;65.53;94730.69;5095388;28;20202;-40
2023/07/03 08:08:44;;;;;;;0.20;0.20;;;29.10;80.70;;;29.47;65.77;94731.19;5094625;28;20205;-39
2023/07/03 08:11:13;;;;;;;0.30;0.30;;;29.10;80.70;;;29.48;66.10;94731.97;5095361;28;20305;-39
2023/07/03 08:13:42;;;;;;;0.20;0.20;;;29.10;80.70;;;29.50;65.62;94727.06;5095188;28;20200;-41
2023/07/03 08:16:10;;;;;;;0.20;0.20;;;29.10;80.80;;;29.52;65.54;94730.25;5095148;28;20210;-40
2023/07/03 08:18:38;;;;;;;0.30;0.30;;;29.10;80.70;;;29.52;65.92;94722.91;5095381;28;20322;-40
2023/07/03 08:21:05;;;;;;;0.20;0.20;;;29.10;80.80;;;29.53;65.85;94721.81;5095090;28;20658;-40
2023/07/03 08:23:32;;;;;;;0.20;0.20;;;29.10;80.70;;;29.55;66.21;94719.59;5095089;28;20587;-39
2023/07/03 08:26:00;;;;;;;0.20;0.20;;;29.10;80.80;;;29.57;65.59;94718.47;5094924;28;20229;-39
2023/07/03 08:28:30;;;;;;;0.30;0.30;;;29.10;80.70;;;29.57;65.86;94713.84;5094936;28;20202;-40
2023/07/03 08:30:57;;;;;;;0.30;0.30;;;29.20;80.70;;;29.59;66.26;94710.81;5095406;28;20195;-40
2023/07/03 08:33:25;;;;;;;0.30;0.30;;;29.20;80.80;;;29.60;65.41;94717.81;5094196;28;20256;-39
2023/07/03 08:35:53;;;;;;;0.30;0.30;;;29.20;80.70;;;29.61;65.67;94724.81;5095029;28;20202;-40
2023/07/03 08:38:23;;;;;;;0.20;0.20;;;29.20;80.70;;;29.63;65.92;94722.63;5095026;28;20258;-40
2023/07/03 08:40:59;;;;;;;0.20;0.20;;;29.20;80.70;;;29.63;65.66;94726.09;5094771;28;20283;-41
2023/07/03 08:43:45;;;;;;;0.20;0.20;;;29.20;80.60;;;29.63;65.87;94722.63;5095244;28;20335;-39
2023/07/03 08:46:19;;;;;;;0.20;0.20;;;29.20;80.60;;;29.65;65.77;94717.66;5094985;28;20564;-41
2023/07/03 08:48:51;;;;;;;0.30;0.30;;;29.30;80.70;;;29.65;65.99;94712.25;5095484;28;20201;-44
2023/07/03 08:51:23;;;;;;;0.30;0.30;;;29.30;80.70;;;29.67;65.61;94712.75;5094939;28;20179;-39
2023/07/03 08:54:19;;;;;;;0.30;0.30;;;29.20;80.50;;;29.67;65.99;94713.53;5094548;28;20187;-40
2023/07/03 08:56:48;;;;;;;0.30;0.30;;;29.30;80.60;;;29.69;65.98;94715.94;5110742;28;20206;-40
2023/07/03 08:59:15;;;;;;;0.22;0.22;;;29.30;80.60;;;29.70;65.78;94702.09;5093929;28;20233;-42
2023/07/03 09:02:10;;;;;;;0.28;0.28;;;29.30;80.50;;;29.70;65.50;94712.13;5094506;28;20246;-41
2023/07/03 09:05:31;;;;;;;0.20;0.20;;;29.30;81.40;;;29.70;65.23;94710.19;5095059;28;20178;-41
2023/07/03 09:08:05;;;;;;;0.35;0.35;;;29.30;80.50;;;29.72;65.24;94715.28;5093807;28;20199;-41
2023/07/03 09:10:41;;;;;;;0.30;0.30;;;29.30;80.40;;;29.73;65.40;94705.28;5094123;28;20188;-40
2023/07/03 09:13:30;;;;;;;0.30;0.30;;;29.30;80.40;;;29.75;65.61;94703.84;5094557;28;20217;-44
2023/07/03 09:16:02;;;;;;;0.20;0.20;;;29.30;80.40;;;29.76;65.42;94708.13;5094654;28;20221;-39
2023/07/03 09:18:42;;;;;;;0.30;0.30;;;29.30;80.40;;;29.76;65.33;94704.63;5093945;28;20271;-40
2023/07/03 09:21:10;;;;;;;0.20;0.20;;;29.30;80.40;;;29.79;65.28;94712.09;5098219;28;20213;-41
2023/07/03 09:24:06;;;;;;;0.20;0.20;;;29.30;80.40;;;29.80;65.72;94700.19;5098560;28;20618;-40
2023/07/03 09:26:59;;;;;;;0.22;0.22;;;29.30;80.30;;;29.80;65.51;94714.47;5098103;28;20309;-40
2023/07/03 09:29:30;;;;;;;0.28;0.28;;;29.30;80.40;;;29.82;65.50;94714.16;5097646;28;20507;-42
2023/07/03 09:31:56;;;;;;;0.30;0.30;;;29.40;80.40;;;29.83;65.18;94704.94;5098269;28;20533;-40
2023/07/03 09:34:24;;;;;;;0.20;0.20;;;29.40;80.40;;;29.86;65.49;94705.09;5097253;28;20202;-40
2023/07/03 09:37:01;;;;;;;0.25;0.25;;;29.40;80.50;;;29.86;65.60;94696.97;5098049;28;20191;-39
2023/07/03 09:39:31;;;;;;;0.22;0.22;;;29.40;80.40;;;29.89;65.02;94709.06;5098052;28;20194;-39
2023/07/03 09:42:06;;;;;;;0.30;0.30;;;29.40;80.40;;;29.91;65.55;94711.50;5097937;28;20253;-39
2023/07/03 09:44:41;;;;;;;0.30;0.30;;;29.40;80.30;;;29.91;65.08;94700.69;5098239;28;20198;-39
2023/07/03 09:47:41;;;;;;;0.30;0.30;;;29.40;80.30;;;29.92;65.40;94713.88;5097859;28;20592;-39
2023/07/03 09:50:09;;;;;;;0.28;0.28;;;29.40;80.30;;;29.95;65.29;94707.81;5087247;28;20210;-39
2023/07/03 09:52:47;;;;;;;0.30;0.30;;;29.50;80.40;;;29.96;64.77;94717.50;5097676;28;20201;-36
2023/07/03 09:55:35;;;;;;;0.20;0.20;;;29.50;80.30;;;29.97;65.14;94713.69;5098282;28;20245;-38
2023/07/03 09:58:19;;;;;;;0.20;0.20;;;29.50;80.20;;;29.98;65.36;94699.06;5096753;28;20201;-39
2023/07/03 10:00:54;;;;;;;0.20;0.20;;;29.50;80.20;;;30.00;65.16;94706.84;5098086;28;20194;-39
2023/07/03 10:03:31;;;;;;;0.20;0.20;;;29.50;80.10;;;30.02;65.30;94704.63;5097393;28;20211;-39
2023/07/03 10:06:18;;;;;;;0.30;0.30;;;29.50;80.10;;;30.01;64.60;94698.41;5097948;28;20211;-39
2023/07/03 10:08:51;;;;;;;0.30;0.30;;;29.60;80.10;;;30.04;65.30;94710.50;5097752;28;20636;-39
2023/07/03 10:11:33;;;;;;;0.40;0.40;;;29.60;80.10;;;30.06;64.78;94702.06;5097958;28;20176;-39
2023/07/03 10:14:01;;;;;;;0.30;0.30;;;29.50;80.10;;;30.07;64.87;94699.03;5096363;28;20182;-39
2023/07/03 10:16:30;;;;;;;0.20;0.20;;;29.60;80.10;;;30.09;65.10;94709.53;5097557;28;20199;-41
2023/07/03 10:18:58;;;;;;;0.20;0.20;;;29.60;80.90;;;30.10;65.09;94705.72;5096380;28;20219;-39
2023/07/03 10:21:26;;;;;;;0.30;0.30;;;29.60;80.00;;;30.13;64.63;94696.97;5096448;28;20582;-40
2023/07/03 10:23:54;;;;;;;0.20;0.20;;;29.60;80.00;;;30.13;64.86;94711.28;5097204;28;20186;-40
2023/07/03 10:26:28;;;;;;;0.30;0.30;;;29.60;80.00;;;30.14;65.00;94699.34;5096213;28;20646;-40
2023/07/03 10:29:29;;;;;;;0.28;0.28;;;29.60;80.00;;;30.15;64.26;94705.53;5096343;28;20525;-41
2023/07/03 10:32:03;;;;;;;0.20;0.20;;;29.60;79.80;;;30.16;64.48;94693.59;5095997;28;20195;-39
2023/07/03 10:34:47;;;;;;;0.20;0.20;;;29.60;79.90;;;30.17;64.10;94692.50;5096974;28;20176;-41